Terminal Aerodrome Forecast
Issued by NWS

Home | Current Version | Previous Version | Text Only | Print | Product List | Glossary On
Versions: 1 2 3 4 5 6 7 8 9 10 11 12 13
000
FTUS45 KABQ 021730
TAFAEG
TAF
KAEG 021730Z 0218/0318 24009KT P6SM VCSH SCT070 BKN200
     FM030000 27012KT P6SM VCTS BKN080CB
     FM030300 31008KT P6SM VCSH BKN100
     FM030900 31005KT P6SM BKN100=

USA.gov is the U.S. government's official web portal to all federal, state and local government web resources and services.